Airfield :
LOGIN :

Register | Disclaimer

   EN    FR    IT 

 










Legend :    VFR   Marginal VFR   IFR   Intensive IFR   Very Intensive IFR
Visi :
Ceiling :
>= 8 km
>= 3000ft
5 to 8 km
1000 to 3000 ft
1500m to 5 km
500 to 1000 ft
800 to 1500m
200 to 500 ft
< 800m
< 200 ft
Symbols :   Thunderstorms  Fog  Heavy snow  Heavy precipitations  Wind > 20 kt
SIGMETs :     Misc.  Thunderstorms  Icing  Turbulence  Mountain Waves  Volcanic Ashes






- Airport Elevation : 26 ft
- IATA code : BIA


LFKB - Bastia

CURRENT METAR :
  • 081730Z AUTO 31007KT CAVOK 32/11 Q1015 NOSIG

EXPIRED METARs :
  • 081700Z AUTO 30009KT CAVOK 33/12 Q1015 NOSIG
  • 081630Z AUTO 29010KT CAVOK 33/12 Q1015 BECMG 23005KT
  • 081600Z AUTO 35010KT 270V020 CAVOK 34/15 Q1015 NOSIG
  • 081530Z AUTO 36009KT CAVOK 33/16 Q1015 NOSIG
  • 081500Z AUTO 35010KT CAVOK 34/15 Q1015 NOSIG

TAF AMD TAF LFKB
Valid from the 08 at 16:00 until the 09 at 15:00 UTC


081656Z 0816/0915 30010KT CAVOK TX34/0910Z TN23/0903Z
BECMG 0818/0821 23005KT
BECMG 0908/0910 03010KT
ATIS : +33 4 95 59 19 40



MET'MAP, your aeronautical weather chart ! - Copyright ORBIFLY December 2007 - Disclaimer

ORBIFLY MET'MAP TEAM :

Programming & Development : Alexandra Zaïnal
Concept & original design : Baudouin d'Aumeries
Assistance for programming : Marc-Olivier Méhu
Technical & hardware support : Manuel Goepfert

Contact : metmap@orbifly.com




SOURCES & CREDITS :

   NOAA